الصفحة الرئيسية
METAR-TAF:

METAR-TAF

مطار :

مطار أوسلو-غاردرموين

أوسلو, النرويج

دائرة عرض: 60-12N, خط طول: 011-05E, ارتفاع: 208 متر

مراقبة الطقس الحالي

تاريخ ووقت الإصدار 33 دقيقة قبل الساعة 23:50UTC
ريح 6 عقدة من الجنوب/الجنوب الغربي
درجة الحرارة 11°درجة مئوية
الرطوبة 87%
ضغط 1011 hPa
الرؤية 10 كم أو أكثر
الغيوم لا تقل 1500 م ولا وجود لمزنة ركامية السحاب الأسود

METAR: ENGM 172350Z 21006KT CAVOK 11/09 Q1011

زمن: 02:23 (00:23 UTC)

توقعات

التوقعات صالحة من18 الساعة 00 UTC إلى 18 الساعة 24 UTC
ريح 8 عقدة من الجنوب
الرؤية 10 كم أو أكثر
غيوم قليلة على ارتفاع 1200 قدم
غيوم متفرقة على ارتفاع 7000 قدم
نظرية الاحتمالات 30%
من 18 الساعة 04 UTC إلى 18 الساعة 09 UTC
غيوم مفككة على ارتفاع 1200 قدم
مؤقت
من 18 الساعة 09 UTC إلى 18 الساعة 17 UTC
ريح 18 عقدة من الجنوب/الجنوب الغربي تتزايد حتى 28 عقدة
الرؤية: 4000 متر
غيوم مفككة على ارتفاع 800 قدم
مطر, رذاذ, غشاء

TAF: ENGM 1800/1824 19008KT 9999 FEW012 SCT070 PROB30 1804/1809 BKN012 TEMPO 1809/1817 20018G28KT 4000 RADZ BR BKN008

أرصاد الطقس والتوقعات من أكثر من 4000 مطار (تقارير الطقس للمطار METAR والتنبؤ بالطقس بالمطارTAF).

المحطات المتاحة هي النقط الصفراء والحمراء على الخريطة.

حرك المؤشر فوق النقطة لمعرفة اسم المحطة.

ثم انقر لمعرفة أرصاد وتوقعات الطقس.

لتغيير الخارطة: اضغط على الأزرار الخضراء مع رمز الصليب الأسود للتكبير. على الزر الأخضر مع شرطة للتصغير، أو على الأسهم الخضراء للخرائط المجاورة.


METAR-TAF: